Time;durP1;ratioP1;P1;durP2;ratioP2;P2;SDS_P1;SDS_P2;PMS_P1;PMS_P2;Temp;Humidity;BMP_temperature;BMP_pressure;BME280_temperature;BME280_humidity;BME280_pressure;Samples;Min_cycle;Max_cycle;Signal;HPM_P1;HPM_P2
2021/10/23 00:01:29;;;;;;;10.75;3.92;;;;;;;;;;4949388;28;20043;-65
2021/10/23 00:03:55;;;;;;;8.77;3.85;;;;;;;;;;4949446;28;20457;-65
2021/10/23 00:06:20;;;;;;;7.65;3.95;;;;;;;;;;4939621;28;20083;-65
2021/10/23 00:08:45;;;;;;;10.38;4.00;;;;;;;;;;4946094;28;20448;-65
2021/10/23 00:11:11;;;;;;;10.60;4.15;;;;;;;;;;4948877;28;20528;-65
2021/10/23 00:13:36;;;;;;;8.88;3.97;;;;;;;;;;4945938;28;20044;-65
2021/10/23 00:16:01;;;;;;;11.10;4.20;;;;;;;;;;4945617;28;20036;-65
2021/10/23 00:18:27;;;;;;;14.25;4.28;;;;;;;;;;4943052;28;20024;-65
2021/10/23 00:20:52;;;;;;;11.38;3.83;;;;;;;;;;4943852;28;20050;-65
2021/10/23 00:23:17;;;;;;;7.85;3.20;;;;;;;;;;4940417;28;20090;-65
2021/10/23 00:25:42;;;;;;;10.57;4.00;;;;;;;;;;4953342;28;20512;-65
2021/10/23 00:28:07;;;;;;;8.30;3.50;;;;;;;;;;4944081;28;20366;-65
2021/10/23 00:30:33;;;;;;;9.18;3.88;;;;;;;;;;4943237;28;20517;-65
2021/10/23 00:33:01;;;;;;;9.77;3.70;;;;;;;;;;4949178;28;20027;-65
2021/10/23 00:35:27;;;;;;;7.78;3.58;;;;;;;;;;4948883;28;20043;-65
2021/10/23 00:37:52;;;;;;;6.95;3.10;;;;;;;;;;4942867;28;20050;-65
2021/10/23 00:40:18;;;;;;;11.57;3.10;;;;;;;;;;4943035;28;20263;-65
2021/10/23 00:42:43;;;;;;;7.22;3.05;;;;;;;;;;4949183;28;20029;-65
2021/10/23 00:45:08;;;;;;;7.65;2.70;;;;;;;;;;4948385;28;20071;-65
2021/10/23 00:47:33;;;;;;;6.20;3.10;;;;;;;;;;4948468;28;20111;-65
2021/10/23 00:49:58;;;;;;;7.70;3.00;;;;;;;;;;4947880;28;20274;-65
2021/10/23 00:52:24;;;;;;;7.57;3.00;;;;;;;;;;4941722;28;20074;-65
2021/10/23 00:54:50;;;;;;;8.20;3.10;;;;;;;;;;4942809;28;20082;-65
2021/10/23 00:57:15;;;;;;;7.20;3.47;;;;;;;;;;4942396;28;20110;-65
2021/10/23 00:59:40;;;;;;;7.10;2.88;;;;;;;;;;4938583;29;20478;-65
2021/10/23 01:02:06;;;;;;;5.72;3.03;;;;;;;;;;4948585;28;20063;-65
2021/10/23 01:04:31;;;;;;;10.82;3.30;;;;;;;;;;4955742;28;20039;-65
2021/10/23 01:06:56;;;;;;;10.95;3.17;;;;;;;;;;4940420;28;20051;-65
2021/10/23 01:09:21;;;;;;;6.45;2.85;;;;;;;;;;4941968;28;20119;-65
2021/10/23 01:11:47;;;;;;;5.53;2.60;;;;;;;;;;4945756;28;20465;-65
2021/10/23 01:14:13;;;;;;;8.25;2.70;;;;;;;;;;4948022;28;20055;-65
2021/10/23 01:16:39;;;;;;;7.95;2.90;;;;;;;;;;4943461;28;20095;-65
2021/10/23 01:19:04;;;;;;;6.75;2.35;;;;;;;;;;4954060;28;20031;-65
2021/10/23 01:21:29;;;;;;;5.82;2.80;;;;;;;;;;4948223;28;20048;-65
2021/10/23 01:23:55;;;;;;;7.15;2.47;;;;;;;;;;4953685;28;20042;-65
2021/10/23 01:26:21;;;;;;;5.50;2.38;;;;;;;;;;4939039;28;20032;-65
2021/10/23 01:28:47;;;;;;;8.95;2.70;;;;;;;;;;4941268;28;20022;-65
2021/10/23 01:31:12;;;;;;;6.20;2.65;;;;;;;;;;4943153;28;20031;-65
2021/10/23 01:33:37;;;;;;;7.70;2.88;;;;;;;;;;4943832;28;20388;-65
2021/10/23 01:36:08;;;;;;;7.20;3.15;;;;;;;;;;4938344;28;20752;-65
2021/10/23 01:38:33;;;;;;;9.18;3.05;;;;;;;;;;4947904;28;20027;-65
2021/10/23 01:40:58;;;;;;;9.75;3.20;;;;;;;;;;4937144;28;20035;-65
2021/10/23 01:43:23;;;;;;;8.05;2.90;;;;;;;;;;4950807;28;20095;-64
2021/10/23 01:45:49;;;;;;;9.55;2.80;;;;;;;;;;4934898;28;20581;-65
2021/10/23 01:48:14;;;;;;;7.13;2.50;;;;;;;;;;4944035;28;20460;-65
2021/10/23 01:50:39;;;;;;;6.10;2.30;;;;;;;;;;4947672;28;20114;-65
2021/10/23 01:53:04;;;;;;;13.27;2.60;;;;;;;;;;4944373;28;20028;-64
2021/10/23 01:55:30;;;;;;;9.25;2.75;;;;;;;;;;4943768;28;20051;-65
2021/10/23 01:57:56;;;;;;;9.38;2.40;;;;;;;;;;4944492;29;20053;-65
2021/10/23 02:00:21;;;;;;;7.53;2.35;;;;;;;;;;4942488;28;20051;-65
2021/10/23 02:02:46;;;;;;;6.18;2.40;;;;;;;;;;4943131;28;20381;-65
2021/10/23 02:05:11;;;;;;;7.80;2.30;;;;;;;;;;4940390;28;20402;-65
2021/10/23 02:07:37;;;;;;;6.30;2.35;;;;;;;;;;4941720;28;20019;-65
2021/10/23 02:10:03;;;;;;;5.80;2.10;;;;;;;;;;4947177;28;20062;-65
2021/10/23 02:12:28;;;;;;;7.35;2.10;;;;;;;;;;4941370;28;20031;-65
2021/10/23 02:14:53;;;;;;;4.63;2.00;;;;;;;;;;4946869;28;20065;-65
2021/10/23 02:17:18;;;;;;;8.68;2.28;;;;;;;;;;4935114;28;20039;-65
2021/10/23 02:19:44;;;;;;;8.30;3.55;;;;;;;;;;4938109;28;20095;-65
2021/10/23 02:22:09;;;;;;;6.28;2.20;;;;;;;;;;4939648;28;20046;-65
2021/10/23 02:24:34;;;;;;;5.35;2.53;;;;;;;;;;4941921;28;20035;-65
2021/10/23 02:26:59;;;;;;;6.22;2.42;;;;;;;;;;4946953;28;20047;-65
2021/10/23 02:29:25;;;;;;;7.03;2.45;;;;;;;;;;4936992;28;20039;-65
2021/10/23 02:31:50;;;;;;;6.93;2.40;;;;;;;;;;4944669;28;20188;-65
2021/10/23 02:34:15;;;;;;;5.63;2.38;;;;;;;;;;4945423;28;20019;-65
2021/10/23 02:36:40;;;;;;;7.30;2.40;;;;;;;;;;4942365;28;20055;-65
2021/10/23 02:39:06;;;;;;;11.45;3.13;;;;;;;;;;4945996;28;20118;-65
2021/10/23 02:41:31;;;;;;;7.22;2.92;;;;;;;;;;4950366;28;20125;-65
2021/10/23 02:43:57;;;;;;;13.02;3.47;;;;;;;;;;4945522;29;20057;-67
2021/10/23 02:46:22;;;;;;;9.30;2.83;;;;;;;;;;4944093;28;20028;-65
2021/10/23 02:48:48;;;;;;;8.65;3.50;;;;;;;;;;4936812;28;20049;-65
2021/10/23 02:51:13;;;;;;;7.78;3.05;;;;;;;;;;4944451;28;20090;-65
2021/10/23 02:53:38;;;;;;;7.38;3.28;;;;;;;;;;4946954;28;20043;-65
2021/10/23 02:56:03;;;;;;;7.20;3.40;;;;;;;;;;4950375;28;20410;-65
2021/10/23 02:58:29;;;;;;;6.00;3.20;;;;;;;;;;4951206;28;20553;-65
2021/10/23 03:00:54;;;;;;;8.27;3.60;;;;;;;;;;4943708;28;20027;-65
2021/10/23 03:03:19;;;;;;;9.82;3.63;;;;;;;;;;4950435;28;20138;-64
2021/10/23 03:05:46;;;;;;;9.20;4.18;;;;;;;;;;4945328;28;20032;-65
2021/10/23 03:08:11;;;;;;;6.47;4.25;;;;;;;;;;4945047;28;20039;-67
2021/10/23 03:10:37;;;;;;;8.82;4.93;;;;;;;;;;4944240;28;20630;-67
2021/10/23 03:13:02;;;;;;;7.40;4.30;;;;;;;;;;4943092;28;20474;-64
2021/10/23 03:15:27;;;;;;;9.55;4.82;;;;;;;;;;4943146;28;20047;-66
2021/10/23 03:17:52;;;;;;;10.55;5.03;;;;;;;;;;4950179;28;20382;-67
2021/10/23 03:20:18;;;;;;;13.20;5.03;;;;;;;;;;4946456;28;20582;-66
2021/10/23 03:22:43;;;;;;;9.38;4.90;;;;;;;;;;4963675;28;20030;-66
2021/10/23 03:25:08;;;;;;;10.15;4.63;;;;;;;;;;4946332;28;20135;-65
2021/10/23 03:27:35;;;;;;;8.98;5.22;;;;;;;;;;4945001;28;20019;-67
2021/10/23 03:30:00;;;;;;;11.60;4.65;;;;;;;;;;4943060;28;20100;-64
2021/10/23 03:32:26;;;;;;;8.38;5.22;;;;;;;;;;4944270;28;20028;-64
2021/10/23 03:34:53;;;;;;;7.05;4.82;;;;;;;;;;4950204;28;20416;-64
2021/10/23 03:37:18;;;;;;;10.13;4.70;;;;;;;;;;4950103;28;20091;-67
2021/10/23 03:39:44;;;;;;;10.02;4.70;;;;;;;;;;4949885;28;20065;-64
2021/10/23 03:42:09;;;;;;;10.10;4.95;;;;;;;;;;4950001;28;20082;-67
2021/10/23 03:44:34;;;;;;;8.55;5.43;;;;;;;;;;4949731;28;20046;-67
2021/10/23 03:47:00;;;;;;;9.95;5.22;;;;;;;;;;4945126;28;20482;-65
2021/10/23 03:49:25;;;;;;;12.90;5.78;;;;;;;;;;4943900;28;20034;-65
2021/10/23 03:51:50;;;;;;;12.07;5.63;;;;;;;;;;4940181;28;20049;-65
2021/10/23 03:54:15;;;;;;;11.10;5.78;;;;;;;;;;4943982;28;20043;-65
2021/10/23 03:56:40;;;;;;;10.25;5.40;;;;;;;;;;4947756;28;20560;-65
2021/10/23 03:59:06;;;;;;;13.35;5.63;;;;;;;;;;4945312;28;20036;-65
2021/10/23 04:01:31;;;;;;;8.80;5.47;;;;;;;;;;4940379;28;20044;-65
2021/10/23 04:03:56;;;;;;;9.38;5.10;;;;;;;;;;4942414;29;20114;-64
2021/10/23 04:06:21;;;;;;;9.77;4.97;;;;;;;;;;4945109;28;20039;-64
2021/10/23 04:08:47;;;;;;;11.15;5.72;;;;;;;;;;4940384;28;20042;-65
2021/10/23 04:11:12;;;;;;;9.27;4.93;;;;;;;;;;4948969;28;20465;-65
2021/10/23 04:13:38;;;;;;;11.23;5.78;;;;;;;;;;4957618;28;20126;-65
2021/10/23 04:16:03;;;;;;;8.40;5.13;;;;;;;;;;4943342;28;20042;-65
2021/10/23 04:18:28;;;;;;;12.88;5.63;;;;;;;;;;4935771;29;20445;-65
2021/10/23 04:20:53;;;;;;;10.15;5.38;;;;;;;;;;4954122;28;20062;-65
2021/10/23 04:23:19;;;;;;;11.98;5.43;;;;;;;;;;4951664;28;20034;-65
2021/10/23 04:25:44;;;;;;;11.93;5.65;;;;;;;;;;4948877;28;20050;-65
2021/10/23 04:28:09;;;;;;;10.85;5.30;;;;;;;;;;4942540;28;20398;-64
2021/10/23 04:30:34;;;;;;;11.70;5.90;;;;;;;;;;4942002;28;20509;-65
2021/10/23 04:32:59;;;;;;;11.38;5.50;;;;;;;;;;4948954;28;20023;-65
2021/10/23 04:35:25;;;;;;;11.48;5.10;;;;;;;;;;4946570;28;20050;-65
2021/10/23 04:37:50;;;;;;;11.05;5.90;;;;;;;;;;4941105;28;20499;-65
2021/10/23 04:40:15;;;;;;;13.55;5.30;;;;;;;;;;4947458;28;20059;-65
2021/10/23 04:42:40;;;;;;;10.45;5.43;;;;;;;;;;4945488;28;20122;-67
2021/10/23 04:45:06;;;;;;;11.07;5.30;;;;;;;;;;4940204;28;20043;-65
2021/10/23 04:47:31;;;;;;;9.27;4.90;;;;;;;;;;4944613;29;20023;-65
2021/10/23 04:49:56;;;;;;;12.05;5.53;;;;;;;;;;4944266;28;20031;-65
2021/10/23 04:52:21;;;;;;;10.27;5.85;;;;;;;;;;4948383;28;20058;-64
2021/10/23 04:54:47;;;;;;;10.95;6.07;;;;;;;;;;4944134;28;20138;-66
2021/10/23 04:57:12;;;;;;;11.98;5.80;;;;;;;;;;4942937;28;20039;-65
2021/10/23 04:59:37;;;;;;;9.98;5.65;;;;;;;;;;4946976;28;20022;-65
2021/10/23 05:02:02;;;;;;;7.57;5.32;;;;;;;;;;4943780;28;20058;-65
2021/10/23 05:04:28;;;;;;;12.63;6.05;;;;;;;;;;4944667;28;20053;-67
2021/10/23 05:06:53;;;;;;;11.77;6.30;;;;;;;;;;4947862;28;20039;-64
2021/10/23 05:09:18;;;;;;;12.48;5.95;;;;;;;;;;4948426;28;20043;-64
2021/10/23 05:11:43;;;;;;;10.85;5.75;;;;;;;;;;4948013;28;20519;-67
2021/10/23 05:14:08;;;;;;;8.65;5.70;;;;;;;;;;4948344;28;20094;-64
2021/10/23 05:16:34;;;;;;;12.68;6.22;;;;;;;;;;4946557;28;20046;-66
2021/10/23 05:18:59;;;;;;;9.07;6.50;;;;;;;;;;4943786;28;20035;-64
2021/10/23 05:21:24;;;;;;;16.70;6.07;;;;;;;;;;4948101;28;20043;-65
2021/10/23 05:23:52;;;;;;;15.82;6.28;;;;;;;;;;4949150;28;20027;-67
2021/10/23 05:26:17;;;;;;;9.13;6.20;;;;;;;;;;4943363;28;20176;-65
2021/10/23 05:28:43;;;;;;;8.75;5.40;;;;;;;;;;4939881;28;20202;-67
2021/10/23 05:31:08;;;;;;;5.28;3.30;;;;;;;;;;4943480;28;20577;-65
2021/10/23 05:33:33;;;;;;;9.38;4.47;;;;;;;;;;4939263;28;20454;-66
2021/10/23 05:35:58;;;;;;;10.02;6.07;;;;;;;;;;4946577;28;20039;-66
2021/10/23 05:38:24;;;;;;;9.57;5.25;;;;;;;;;;4943665;28;20038;-64
2021/10/23 05:40:49;;;;;;;11.02;6.40;;;;;;;;;;4958195;28;20039;-67
2021/10/23 05:43:14;;;;;;;13.35;7.05;;;;;;;;;;4932112;28;20054;-66
2021/10/23 05:45:39;;;;;;;11.60;7.47;;;;;;;;;;4941071;28;20038;-66
2021/10/23 05:48:05;;;;;;;12.23;6.75;;;;;;;;;;4947901;28;20034;-66
2021/10/23 05:50:30;;;;;;;16.13;7.82;;;;;;;;;;4947310;28;20043;-66
2021/10/23 05:52:55;;;;;;;8.50;4.85;;;;;;;;;;4944649;28;20045;-66
2021/10/23 05:55:20;;;;;;;14.25;6.40;;;;;;;;;;4945397;28;20181;-66
2021/10/23 05:57:45;;;;;;;18.88;9.73;;;;;;;;;;4942593;29;20097;-66
2021/10/23 06:00:13;;;;;;;13.18;8.13;;;;;;;;;;4947004;28;20239;-66
2021/10/23 06:02:38;;;;;;;13.32;8.02;;;;;;;;;;4939241;29;20027;-66
2021/10/23 06:05:04;;;;;;;15.93;8.15;;;;;;;;;;4946976;28;20537;-65
2021/10/23 06:07:31;;;;;;;17.83;7.90;;;;;;;;;;4955883;28;20020;-65
2021/10/23 06:09:57;;;;;;;15.50;6.35;;;;;;;;;;4935530;29;20031;-65
2021/10/23 06:12:24;;;;;;;14.55;7.97;;;;;;;;;;4937530;28;20028;-65
2021/10/23 06:14:49;;;;;;;15.65;8.27;;;;;;;;;;4942525;28;20050;-66
2021/10/23 06:17:14;;;;;;;19.98;8.88;;;;;;;;;;4941348;28;20040;-66
2021/10/23 06:19:41;;;;;;;15.73;10.07;;;;;;;;;;4947080;28;20042;-65
2021/10/23 06:22:06;;;;;;;16.42;8.60;;;;;;;;;;4943019;28;20061;-66
2021/10/23 06:24:32;;;;;;;14.55;9.30;;;;;;;;;;4945265;28;20486;-65
2021/10/23 06:26:57;;;;;;;15.07;7.38;;;;;;;;;;4944818;28;20035;-65
2021/10/23 06:29:22;;;;;;;19.23;8.93;;;;;;;;;;4942683;29;20027;-66
2021/10/23 06:31:47;;;;;;;17.58;8.60;;;;;;;;;;4940714;28;20114;-66
2021/10/23 06:34:13;;;;;;;23.65;8.43;;;;;;;;;;4947422;28;21853;-66
2021/10/23 06:36:38;;;;;;;13.82;8.15;;;;;;;;;;4947992;28;20027;-66
2021/10/23 06:39:03;;;;;;;17.25;8.55;;;;;;;;;;4950248;28;20038;-66
2021/10/23 06:41:30;;;;;;;13.15;7.38;;;;;;;;;;4947338;28;20046;-67
2021/10/23 06:43:55;;;;;;;14.20;7.43;;;;;;;;;;4947150;28;20039;-65
2021/10/23 06:46:21;;;;;;;13.82;7.78;;;;;;;;;;4940873;28;20211;-66
2021/10/23 06:48:46;;;;;;;16.63;7.95;;;;;;;;;;4940871;28;20105;-66
2021/10/23 06:51:11;;;;;;;13.60;7.28;;;;;;;;;;4938469;28;20446;-65
2021/10/23 06:53:36;;;;;;;13.30;8.55;;;;;;;;;;4939823;29;20102;-66
2021/10/23 06:56:02;;;;;;;15.40;8.73;;;;;;;;;;4941226;28;20051;-65
2021/10/23 06:58:27;;;;;;;19.15;9.00;;;;;;;;;;4938994;29;20036;-66
2021/10/23 07:00:52;;;;;;;18.60;8.82;;;;;;;;;;4941781;28;20035;-66
2021/10/23 07:03:17;;;;;;;12.45;8.13;;;;;;;;;;4936855;28;20028;-66
2021/10/23 07:05:43;;;;;;;13.75;7.60;;;;;;;;;;4946058;28;20070;-66
2021/10/23 07:08:08;;;;;;;13.68;8.18;;;;;;;;;;4946337;28;20042;-66
2021/10/23 07:10:33;;;;;;;10.77;6.90;;;;;;;;;;4945054;28;20493;-66
2021/10/23 07:12:58;;;;;;;17.23;7.80;;;;;;;;;;4944967;29;20027;-66
2021/10/23 07:15:24;;;;;;;14.60;8.90;;;;;;;;;;4946332;28;20043;-66
2021/10/23 07:17:49;;;;;;;12.50;7.68;;;;;;;;;;4943513;28;20722;-65
2021/10/23 07:20:14;;;;;;;12.88;5.65;;;;;;;;;;4945188;28;20016;-66
2021/10/23 07:22:39;;;;;;;16.10;8.25;;;;;;;;;;4937907;29;20023;-66
2021/10/23 07:25:05;;;;;;;21.80;8.40;;;;;;;;;;4947332;28;20049;-66
2021/10/23 07:27:30;;;;;;;13.52;8.13;;;;;;;;;;4941085;29;20019;-65
2021/10/23 07:29:56;;;;;;;18.23;8.68;;;;;;;;;;4949211;28;20097;-65
2021/10/23 07:32:22;;;;;;;13.40;7.57;;;;;;;;;;4945044;28;20034;-65
2021/10/23 07:34:47;;;;;;;13.93;8.15;;;;;;;;;;4940136;28;20031;-65
2021/10/23 07:37:12;;;;;;;17.23;9.13;;;;;;;;;;4949856;28;20098;-65
2021/10/23 07:39:37;;;;;;;18.10;7.00;;;;;;;;;;4944505;28;20042;-65
2021/10/23 07:42:03;;;;;;;15.52;8.10;;;;;;;;;;4950132;28;20190;-65
2021/10/23 07:44:28;;;;;;;15.40;8.65;;;;;;;;;;4943413;28;20053;-65
2021/10/23 07:46:53;;;;;;;20.17;8.48;;;;;;;;;;4945566;28;20373;-65
2021/10/23 07:49:19;;;;;;;14.02;7.80;;;;;;;;;;4949785;28;20027;-65
2021/10/23 07:51:44;;;;;;;10.38;7.05;;;;;;;;;;4948812;28;20047;-66
2021/10/23 07:54:09;;;;;;;16.40;8.75;;;;;;;;;;4948824;29;20484;-65
2021/10/23 07:56:38;;;;;;;13.73;8.35;;;;;;;;;;4949775;28;20035;-65
2021/10/23 07:59:03;;;;;;;18.55;8.15;;;;;;;;;;4938969;29;20118;-66
2021/10/23 08:01:29;;;;;;;16.13;7.95;;;;;;;;;;4949086;28;20083;-65
2021/10/23 08:03:54;;;;;;;17.88;8.40;;;;;;;;;;4946958;28;20042;-65
2021/10/23 08:06:20;;;;;;;14.20;8.27;;;;;;;;;;4942585;28;20027;-66
2021/10/23 08:08:45;;;;;;;14.57;8.15;;;;;;;;;;4948307;28;20625;-65
2021/10/23 08:11:10;;;;;;;15.65;7.28;;;;;;;;;;4948562;28;20048;-66
2021/10/23 08:13:36;;;;;;;14.73;8.15;;;;;;;;;;4943886;28;20055;-66
2021/10/23 08:16:01;;;;;;;16.25;8.93;;;;;;;;;;4944307;28;20043;-66
2021/10/23 08:18:27;;;;;;;16.05;8.55;;;;;;;;;;4945817;28;20038;-66
2021/10/23 08:20:52;;;;;;;22.63;8.27;;;;;;;;;;4944479;28;20044;-65
2021/10/23 08:23:17;;;;;;;15.70;9.02;;;;;;;;;;4949708;29;20399;-65
2021/10/23 08:25:42;;;;;;;16.75;8.48;;;;;;;;;;4947503;28;20500;-66
2021/10/23 08:28:07;;;;;;;16.33;9.00;;;;;;;;;;4944469;28;20034;-66
2021/10/23 08:30:33;;;;;;;16.40;8.93;;;;;;;;;;4935786;28;20038;-66
2021/10/23 08:32:58;;;;;;;20.80;11.02;;;;;;;;;;4944053;28;20027;-65
2021/10/23 08:35:23;;;;;;;20.58;10.02;;;;;;;;;;4948645;28;20044;-65
2021/10/23 08:37:50;;;;;;;17.15;10.50;;;;;;;;;;4949590;28;20106;-65
2021/10/23 08:40:15;;;;;;;20.60;10.25;;;;;;;;;;4944900;28;20038;-65
2021/10/23 08:42:41;;;;;;;18.77;9.18;;;;;;;;;;4945132;29;20019;-65
2021/10/23 08:45:07;;;;;;;20.58;10.93;;;;;;;;;;4948088;28;20405;-65
2021/10/23 08:47:34;;;;;;;18.40;10.05;;;;;;;;;;4947085;28;20681;-65
2021/10/23 08:49:59;;;;;;;15.75;11.00;;;;;;;;;;4943234;28;20510;-65
2021/10/23 08:52:26;;;;;;;16.98;11.80;;;;;;;;;;4945140;28;20046;-65
2021/10/23 08:54:52;;;;;;;20.15;12.85;;;;;;;;;;4943989;28;20145;-65
2021/10/23 08:57:17;;;;;;;18.83;12.45;;;;;;;;;;4947992;28;20182;-65
2021/10/23 08:59:44;;;;;;;22.17;11.63;;;;;;;;;;4946274;28;20027;-65
2021/10/23 09:02:10;;;;;;;20.60;10.82;;;;;;;;;;4948458;28;20349;-65
2021/10/23 09:04:35;;;;;;;18.45;9.20;;;;;;;;;;4944434;29;20039;-65
2021/10/23 09:07:08;;;;;;;14.75;8.25;;;;;;;;;;4948583;28;20094;-65
2021/10/23 09:09:42;;;;;;;15.85;8.82;;;;;;;;;;4941749;29;20031;-65
2021/10/23 09:12:11;;;;;;;16.00;8.02;;;;;;;;;;4938595;28;20034;-65
2021/10/23 09:14:38;;;;;;;11.70;7.72;;;;;;;;;;4945689;29;20539;-65
2021/10/23 09:17:03;;;;;;;15.65;9.00;;;;;;;;;;4948194;28;20039;-65
2021/10/23 09:19:34;;;;;;;16.65;8.77;;;;;;;;;;4947613;28;20085;-65
2021/10/23 09:22:01;;;;;;;14.35;7.80;;;;;;;;;;4947976;28;20135;-65
2021/10/23 09:24:26;;;;;;;13.95;7.95;;;;;;;;;;4935828;28;20031;-65
2021/10/23 09:26:51;;;;;;;13.75;8.65;;;;;;;;;;4947998;28;20099;-65
2021/10/23 09:29:17;;;;;;;14.57;8.10;;;;;;;;;;4945697;29;20089;-65
2021/10/23 09:31:44;;;;;;;18.00;8.07;;;;;;;;;;4941003;28;20047;-65
2021/10/23 09:34:10;;;;;;;14.55;7.47;;;;;;;;;;4952740;28;20433;-65
2021/10/23 09:36:40;;;;;;;14.60;8.05;;;;;;;;;;4942804;28;20035;-65
2021/10/23 09:39:08;;;;;;;13.25;8.38;;;;;;;;;;4943388;28;20030;-65
2021/10/23 09:41:33;;;;;;;21.73;8.77;;;;;;;;;;4944234;28;20027;-66
2021/10/23 09:44:14;;;;;;;13.02;8.23;;;;;;;;;;4944369;29;20027;-66
2021/10/23 09:46:52;;;;;;;14.65;8.30;;;;;;;;;;4931060;28;20031;-65
2021/10/23 09:49:17;;;;;;;9.57;7.55;;;;;;;;;;4939785;29;20034;-66
2021/10/23 09:51:43;;;;;;;14.73;8.30;;;;;;;;;;4939410;28;20028;-65
2021/10/23 09:54:13;;;;;;;12.13;8.43;;;;;;;;;;4946376;29;20065;-65
2021/10/23 09:56:38;;;;;;;14.30;8.55;;;;;;;;;;4947702;28;20502;-66
2021/10/23 09:59:04;;;;;;;12.88;7.88;;;;;;;;;;4943253;28;20042;-65
2021/10/23 10:01:30;;;;;;;12.88;7.43;;;;;;;;;;4947605;28;20067;-65
2021/10/23 10:04:13;;;;;;;13.13;7.63;;;;;;;;;;4947174;28;20077;-66
2021/10/23 10:06:40;;;;;;;15.23;8.85;;;;;;;;;;4935827;28;20488;-66
2021/10/23 10:09:06;;;;;;;16.67;8.25;;;;;;;;;;4942564;28;20023;-67
2021/10/23 10:11:31;;;;;;;17.02;9.05;;;;;;;;;;4935367;28;20042;-67
2021/10/23 10:13:57;;;;;;;15.98;8.38;;;;;;;;;;4941593;28;20656;-64
2021/10/23 10:16:25;;;;;;;14.25;7.95;;;;;;;;;;4946647;28;20031;-66
2021/10/23 10:18:51;;;;;;;13.93;7.80;;;;;;;;;;4941703;28;20051;-66
2021/10/23 10:21:17;;;;;;;9.70;7.13;;;;;;;;;;4943401;28;20047;-66
2021/10/23 10:23:42;;;;;;;21.40;7.50;;;;;;;;;;4944387;29;20389;-67
2021/10/23 10:26:14;;;;;;;15.43;7.15;;;;;;;;;;4943879;28;20043;-66
2021/10/23 10:28:59;;;;;;;12.60;7.85;;;;;;;;;;4946941;29;20030;-66
2021/10/23 10:31:43;;;;;;;15.25;7.80;;;;;;;;;;4939941;28;20035;-66
2021/10/23 10:34:13;;;;;;;13.45;7.53;;;;;;;;;;4944244;28;20103;-66
2021/10/23 10:36:38;;;;;;;17.48;8.82;;;;;;;;;;4947099;28;20039;-65
2021/10/23 10:39:40;;;;;;;13.82;8.13;;;;;;;;;;4945198;28;20358;-66
2021/10/23 10:42:50;;;;;;;16.10;8.13;;;;;;;;;;4947155;28;20035;-66
2021/10/23 10:45:21;;;;;;;20.40;8.63;;;;;;;;;;4944401;28;20043;-66
2021/10/23 10:48:05;;;;;;;11.60;5.40;;;;;;;;;;4940443;28;20058;-66
2021/10/23 10:50:34;;;;;;;11.32;6.15;;;;;;;;;;4936045;28;20071;-66
2021/10/23 10:53:08;;;;;;;19.58;15.73;;;;;;;;;;4940043;28;20040;-66
2021/10/23 10:55:36;;;;;;;9.85;5.10;;;;;;;;;;4948128;28;20359;-66
2021/10/23 10:58:09;;;;;;;12.15;5.10;;;;;;;;;;4950766;28;20139;-66
2021/10/23 11:00:48;;;;;;;11.15;5.22;;;;;;;;;;4949033;28;20043;-66
2021/10/23 11:03:35;;;;;;;22.90;6.15;;;;;;;;;;4940148;28;20027;-66
2021/10/23 11:06:19;;;;;;;13.48;5.65;;;;;;;;;;4938669;28;20039;-66
2021/10/23 11:08:44;;;;;;;10.50;5.30;;;;;;;;;;4949718;29;20500;-66
2021/10/23 11:11:09;;;;;;;10.93;5.13;;;;;;;;;;4945353;28;20038;-65
2021/10/23 11:13:42;;;;;;;10.07;4.22;;;;;;;;;;4948855;28;20185;-65
2021/10/23 11:16:26;;;;;;;12.65;4.43;;;;;;;;;;4946713;28;20488;-65
2021/10/23 11:18:56;;;;;;;13.80;5.50;;;;;;;;;;4949498;28;20043;-65
2021/10/23 11:21:21;;;;;;;11.35;6.05;;;;;;;;;;4949952;28;20437;-65
2021/10/23 11:23:52;;;;;;;8.85;5.40;;;;;;;;;;4945107;28;20031;-65
2021/10/23 11:26:18;;;;;;;10.10;5.97;;;;;;;;;;4948384;28;20532;-65
2021/10/23 11:28:43;;;;;;;10.80;6.75;;;;;;;;;;4939466;28;20023;-66
2021/10/23 11:31:18;;;;;;;12.27;7.35;;;;;;;;;;4949210;28;20035;-66
2021/10/23 11:33:44;;;;;;;14.50;7.65;;;;;;;;;;4946089;28;20019;-66
2021/10/23 11:36:18;;;;;;;14.73;7.72;;;;;;;;;;4950019;28;20040;-66
2021/10/23 11:38:47;;;;;;;12.60;7.63;;;;;;;;;;4947943;29;20389;-66
2021/10/23 11:41:13;;;;;;;11.18;6.82;;;;;;;;;;4940877;28;20169;-66
2021/10/23 11:43:39;;;;;;;17.08;7.90;;;;;;;;;;4945675;28;20035;-66
2021/10/23 11:46:06;;;;;;;12.02;7.38;;;;;;;;;;4942976;28;20122;-66
2021/10/23 11:48:31;;;;;;;12.55;7.35;;;;;;;;;;4940220;28;20063;-66
2021/10/23 11:50:56;;;;;;;10.45;3.03;;;;;;;;;;4943158;28;20415;-65
2021/10/23 11:53:22;;;;;;;11.57;2.83;;;;;;;;;;4949507;28;20031;-65
2021/10/23 11:55:55;;;;;;;9.43;4.10;;;;;;;;;;4958936;28;20093;-65
2021/10/23 11:58:30;;;;;;;15.77;3.90;;;;;;;;;;4948171;28;20035;-65
2021/10/23 12:00:58;;;;;;;11.85;4.20;;;;;;;;;;4948397;28;20515;-64
2021/10/23 12:03:28;;;;;;;12.05;4.65;;;;;;;;;;4943671;28;20043;-65
2021/10/23 12:05:53;;;;;;;13.68;5.03;;;;;;;;;;4944092;28;20560;-66
2021/10/23 12:08:18;;;;;;;10.40;3.85;;;;;;;;;;4945202;28;20517;-64
2021/10/23 12:11:02;;;;;;;15.02;4.63;;;;;;;;;;4949625;28;20069;-64
2021/10/23 12:13:41;;;;;;;13.35;5.45;;;;;;;;;;4955495;28;20123;-64
2021/10/23 12:16:06;;;;;;;11.45;4.38;;;;;;;;;;4944532;28;20094;-64
2021/10/23 12:18:35;;;;;;;8.68;5.20;;;;;;;;;;4948054;28;20504;-66
2021/10/23 12:21:16;;;;;;;10.18;5.13;;;;;;;;;;4938840;28;20061;-65
2021/10/23 12:23:47;;;;;;;12.57;4.75;;;;;;;;;;4944326;28;20125;-65
2021/10/23 12:26:12;;;;;;;15.05;4.97;;;;;;;;;;4939047;28;20067;-65
2021/10/23 12:28:56;;;;;;;12.15;4.90;;;;;;;;;;4949499;28;20544;-65
2021/10/23 12:31:21;;;;;;;13.38;5.85;;;;;;;;;;4947685;28;20086;-65
2021/10/23 12:33:59;;;;;;;15.80;5.45;;;;;;;;;;4940868;29;20027;-66
2021/10/23 12:36:24;;;;;;;13.15;4.70;;;;;;;;;;4938307;28;20325;-65
2021/10/23 12:38:49;;;;;;;10.40;3.95;;;;;;;;;;4948850;29;20050;-65
2021/10/23 12:41:15;;;;;;;8.20;4.00;;;;;;;;;;4948887;28;20783;-64
2021/10/23 12:43:40;;;;;;;9.05;4.05;;;;;;;;;;4948905;28;20504;-64
2021/10/23 12:46:06;;;;;;;7.75;3.38;;;;;;;;;;4939346;28;20097;-64
2021/10/23 12:48:32;;;;;;;10.60;4.32;;;;;;;;;;4939575;29;20467;-65
2021/10/23 12:50:58;;;;;;;16.30;5.13;;;;;;;;;;4944275;28;20043;-64
2021/10/23 12:53:23;;;;;;;14.68;5.65;;;;;;;;;;4948964;28;20707;-65
2021/10/23 12:55:48;;;;;;;11.57;5.15;;;;;;;;;;4959669;28;20119;-64
2021/10/23 12:58:13;;;;;;;13.57;4.90;;;;;;;;;;4944243;28;20022;-64
2021/10/23 13:00:39;;;;;;;15.30;4.20;;;;;;;;;;4944733;28;20097;-64
2021/10/23 13:03:05;;;;;;;11.20;3.83;;;;;;;;;;4948950;28;20102;-64
2021/10/23 13:05:30;;;;;;;12.13;3.75;;;;;;;;;;4948163;28;20167;-63
2021/10/23 13:07:55;;;;;;;7.82;3.78;;;;;;;;;;4943898;28;20030;-64
2021/10/23 13:10:21;;;;;;;14.90;3.65;;;;;;;;;;4947834;28;20069;-63
2021/10/23 13:12:46;;;;;;;12.40;4.03;;;;;;;;;;4947846;28;20034;-63
2021/10/23 13:15:12;;;;;;;9.43;3.50;;;;;;;;;;4947110;28;20035;-63
2021/10/23 13:17:37;;;;;;;9.40;3.45;;;;;;;;;;4947510;28;20019;-65
2021/10/23 13:20:03;;;;;;;20.90;4.68;;;;;;;;;;4942327;28;20042;-65
2021/10/23 13:22:28;;;;;;;7.57;3.30;;;;;;;;;;4949046;29;20027;-65
2021/10/23 13:24:54;;;;;;;8.93;4.20;;;;;;;;;;4946355;28;20429;-65
2021/10/23 13:27:19;;;;;;;10.43;3.47;;;;;;;;;;4944063;28;20505;-65
2021/10/23 13:29:44;;;;;;;7.90;2.85;;;;;;;;;;4941916;28;20023;-64
2021/10/23 13:32:10;;;;;;;9.45;2.40;;;;;;;;;;4947208;28;20452;-64
2021/10/23 13:34:35;;;;;;;8.57;3.47;;;;;;;;;;4947427;28;20027;-64
2021/10/23 13:37:00;;;;;;;10.63;3.03;;;;;;;;;;4947960;28;20046;-64
2021/10/23 13:39:25;;;;;;;8.77;3.30;;;;;;;;;;4945570;28;20038;-65
2021/10/23 13:41:51;;;;;;;12.25;5.65;;;;;;;;;;4945139;28;20087;-64
2021/10/23 13:44:16;;;;;;;9.90;3.78;;;;;;;;;;4944836;28;20454;-64
2021/10/23 13:46:44;;;;;;;15.80;3.72;;;;;;;;;;4944020;28;20039;-64
2021/10/23 13:49:10;;;;;;;13.32;3.35;;;;;;;;;;4947744;28;20031;-64
2021/10/23 13:51:35;;;;;;;9.38;3.53;;;;;;;;;;4946235;28;20039;-65
2021/10/23 13:54:01;;;;;;;13.45;4.10;;;;;;;;;;4937494;29;20037;-64
2021/10/23 13:56:26;;;;;;;12.50;5.00;;;;;;;;;;4956997;28;20449;-65
2021/10/23 13:58:52;;;;;;;10.60;3.78;;;;;;;;;;4939355;28;20027;-65
2021/10/23 14:01:17;;;;;;;16.52;4.22;;;;;;;;;;4937832;28;20380;-66
2021/10/23 14:03:42;;;;;;;13.45;3.42;;;;;;;;;;4939360;29;20035;-65
2021/10/23 14:06:07;;;;;;;7.78;2.50;;;;;;;;;;4946229;28;20035;-63
2021/10/23 14:08:33;;;;;;;8.15;2.05;;;;;;;;;;4961273;28;20030;-64
2021/10/23 14:10:58;;;;;;;7.75;2.58;;;;;;;;;;4932240;28;20560;-65
2021/10/23 14:13:23;;;;;;;7.85;2.67;;;;;;;;;;4941876;29;20051;-64
2021/10/23 14:15:48;;;;;;;9.70;2.60;;;;;;;;;;4947299;28;20043;-65
2021/10/23 14:18:14;;;;;;;13.48;2.70;;;;;;;;;;4947082;28;20023;-64
2021/10/23 14:20:39;;;;;;;15.43;3.00;;;;;;;;;;4956235;28;20032;-64
2021/10/23 14:23:08;;;;;;;9.63;3.13;;;;;;;;;;4942806;28;20042;-63
2021/10/23 14:25:34;;;;;;;8.13;3.03;;;;;;;;;;4941656;28;20198;-64
2021/10/23 14:28:09;;;;;;;9.35;2.72;;;;;;;;;;4951763;28;20708;-64
2021/10/23 14:30:34;;;;;;;12.48;3.08;;;;;;;;;;4951184;28;20089;-63